Strona główna
METAR-TAF:

METAR-TAF

Lotnisko :

Port lotniczy Porto Alegre-Salgado Filho

Porto Alegre, Rio Grande do Sul, Brazylia

Szerokość geograficzna: 30-00S, Długość geograficzna: 051-11W, wysokość: 3 m

Aktualna obserwacja pogody

Raport powstał 39 minut temu, godzina 18:00 UTC
Wiatr 11 kt od zachodnio-północny zachód
Temperatura 18°C
Wilgotność 52%
Ciśnienie 1019 hPa
Widzialność 10 km lub więcej
Brak chmur poniżej 1500 m i brak chmur cumulonimbus

METAR: SBPA 121800Z 30011KT CAVOK 18/08 Q1019

czas: 15:39 (18:39 UTC)

Prognoza

Raport powstał 3 godziny i 39 minut temu, godzina 15:00 UTC
Prognoza ważna od 12 godzina 18 UTC do 13 godzina 18 UTC
Wiatr 8 kt od północny zachód
Widzialność 10 km lub więcej
Brak chmur poniżej 1500 m i brak chmur cumulonimbus

TAF: SBPA 121500Z 1218/1318 31008KT CAVOK TX18/1218Z TN09/1308Z RMK PED

Obserwacja i prognoza pogody dla ponad 4000 lotnisk (raport METAR i TAF).

Dostępne stacje oznaczono żółtymi i czerwonymi punktami na mapie.

Najedź kursorem aby zobaczyć nazwę stacji.

Kliknij aby zobaczyć obserwacje i prognozy pogody.

Aby zmienić mapę: kliknij na zielony przycisk z czarnym krzyżykiem, aby powiększyć; na zielony przycisk z myślnikiem, aby pomniejszyć; na zielone strzałki, aby przejść do map sąsiednich.


METAR-TAF: